createdAt,value
2023-03-15T00:00:45.569Z,6.57
2023-03-15T00:01:48.083Z,6.05
2023-03-15T00:02:50.738Z,5.50
2023-03-15T00:03:55.234Z,5.78
2023-03-15T00:04:57.847Z,6.65
2023-03-15T00:06:01.377Z,5.75
2023-03-15T00:07:04.148Z,5.38
2023-03-15T00:08:06.624Z,6.13
2023-03-15T00:09:09.200Z,5.68
2023-03-15T00:10:11.898Z,5.43
2023-03-15T00:11:15.965Z,5.63
2023-03-15T00:12:18.827Z,5.43
2023-03-15T00:13:21.374Z,3.50
2023-03-15T00:14:23.935Z,2.58
2023-03-15T00:15:26.359Z,2.00
2023-03-15T00:16:28.971Z,1.60
2023-03-15T00:17:34.752Z,1.38
2023-03-15T00:18:37.362Z,1.02
2023-03-15T00:19:39.816Z,1.25
2023-03-15T00:20:42.536Z,1.20
2023-03-15T00:21:45.095Z,1.08
2023-03-15T00:22:47.626Z,0.95
2023-03-15T00:23:50.602Z,0.82
2023-03-15T00:24:53.211Z,1.00
2023-03-15T00:25:55.765Z,1.10
2023-03-15T00:26:58.371Z,1.00
2023-03-15T00:28:00.898Z,1.20
2023-03-15T00:29:03.862Z,1.30
2023-03-15T00:30:07.113Z,0.85
2023-03-15T00:31:21.568Z,1.13
2023-03-15T00:32:25.589Z,1.35
2023-03-15T00:33:28.110Z,1.17
2023-03-15T00:34:33.798Z,0.93
2023-03-15T00:35:40.565Z,1.08
2023-03-15T00:36:43.718Z,0.85
2023-03-15T00:37:46.397Z,0.80
2023-03-15T00:38:49.209Z,0.90
2023-03-15T00:39:52.157Z,1.17
2023-03-15T00:40:54.741Z,1.42
2023-03-15T00:41:57.311Z,1.38
2023-03-15T00:43:00.434Z,1.02
2023-03-15T00:44:04.494Z,1.30
2023-03-15T00:45:07.668Z,1.13
2023-03-15T00:46:11.126Z,1.60
2023-03-15T00:47:14.827Z,1.10
2023-03-15T00:48:17.345Z,0.65
2023-03-15T00:49:20.241Z,0.98
2023-03-15T00:50:23.385Z,1.13
2023-03-15T00:51:25.963Z,0.75
2023-03-15T00:52:36.078Z,0.70
2023-03-15T00:53:40.962Z,0.85
2023-03-15T00:54:44.308Z,1.13
2023-03-15T00:55:47.222Z,0.90
2023-03-15T00:56:50.830Z,0.80
2023-03-15T00:57:53.487Z,1.30
2023-03-15T00:58:56.238Z,1.10
2023-03-15T00:59:58.877Z,0.98
2023-03-15T01:01:11.323Z,1.67
2023-03-15T01:03:16.613Z,1.20
2023-03-15T01:04:19.256Z,1.50
2023-03-15T01:05:22.570Z,1.45
2023-03-15T01:06:27.623Z,1.13
2023-03-15T01:07:30.257Z,1.25
2023-03-15T01:08:32.900Z,1.15
2023-03-15T01:09:36.030Z,1.00
2023-03-15T01:10:38.900Z,0.90
2023-03-15T01:11:43.090Z,1.17
2023-03-15T01:12:46.339Z,0.70
2023-03-15T01:13:48.894Z,1.10
2023-03-15T01:14:51.536Z,0.80
2023-03-15T01:15:54.129Z,0.90
2023-03-15T01:16:56.674Z,0.77
2023-03-15T01:17:59.253Z,0.85
2023-03-15T01:19:01.995Z,0.70
2023-03-15T01:20:05.680Z,0.98
2023-03-15T01:21:13.386Z,0.70
2023-03-15T01:22:15.998Z,0.70
2023-03-15T01:23:18.721Z,0.80
2023-03-15T01:24:23.179Z,0.90
2023-03-15T01:25:26.180Z,0.68
2023-03-15T01:26:28.768Z,0.75
2023-03-15T01:27:31.401Z,1.00
2023-03-15T01:28:34.189Z,0.65
2023-03-15T01:29:36.914Z,1.00
2023-03-15T01:30:40.734Z,0.73
2023-03-15T01:31:43.215Z,0.88
2023-03-15T01:32:46.639Z,1.13
2023-03-15T01:33:49.366Z,1.20
2023-03-15T01:34:51.953Z,0.85
2023-03-15T01:36:06.333Z,1.10
2023-03-15T01:37:14.765Z,1.10
2023-03-15T01:38:21.427Z,1.13
2023-03-15T01:39:24.102Z,1.20
2023-03-15T01:40:26.784Z,1.10
2023-03-15T01:41:29.448Z,0.85
2023-03-15T01:42:32.639Z,1.00
2023-03-15T01:43:35.854Z,1.20
2023-03-15T01:44:52.313Z,1.30
2023-03-15T01:46:16.187Z,1.70
2023-03-15T01:47:20.896Z,1.50
2023-03-15T01:48:28.572Z,1.20
2023-03-15T01:49:32.598Z,1.33
2023-03-15T01:50:35.917Z,1.63
2023-03-15T01:51:49.656Z,1.10
2023-03-15T01:52:53.701Z,1.00
2023-03-15T01:54:28.093Z,0.80
2023-03-15T01:55:32.630Z,0.82
2023-03-15T01:56:50.806Z,1.10
2023-03-15T01:57:56.972Z,1.13
2023-03-15T01:59:04.111Z,0.88
2023-03-15T02:00:12.326Z,0.98
2023-03-15T02:01:35.679Z,0.93
2023-03-15T02:02:46.635Z,0.77
2023-03-15T02:04:00.013Z,0.77
2023-03-15T02:05:12.140Z,0.88
2023-03-15T02:06:18.815Z,1.00
2023-03-15T02:07:29.299Z,1.35
2023-03-15T02:08:37.976Z,1.13
2023-03-15T02:10:04.316Z,1.42
2023-03-15T02:11:09.245Z,1.20
2023-03-15T02:12:12.176Z,1.30
2023-03-15T02:13:18.113Z,1.40
2023-03-15T02:14:22.541Z,1.45
2023-03-15T02:15:25.636Z,1.30
2023-03-15T02:16:29.417Z,1.30
2023-03-15T02:17:41.555Z,1.48
2023-03-15T02:18:44.252Z,1.00
2023-03-15T02:19:49.304Z,1.20
2023-03-15T02:20:57.448Z,0.90
2023-03-15T02:22:17.128Z,1.10
2023-03-15T02:23:21.617Z,0.77
2023-03-15T02:24:45.670Z,1.13
2023-03-15T02:26:12.826Z,1.02
2023-03-15T02:27:25.201Z,0.90
2023-03-15T02:28:28.268Z,1.05
2023-03-15T02:29:30.972Z,1.45
2023-03-15T02:30:33.890Z,1.05
2023-03-15T02:31:38.737Z,0.90
2023-03-15T02:32:41.784Z,1.08
2023-03-15T02:33:46.845Z,1.38
2023-03-15T02:34:50.151Z,1.27
2023-03-15T02:35:53.398Z,1.67
2023-03-15T02:36:56.051Z,0.82
2023-03-15T02:37:59.426Z,1.15
2023-03-15T02:39:03.596Z,1.10
2023-03-15T02:40:18.223Z,1.30
2023-03-15T02:41:38.189Z,2.40
2023-03-15T02:42:42.634Z,1.17
2023-03-15T02:43:46.713Z,1.23
2023-03-15T02:44:51.886Z,1.20
2023-03-15T02:45:54.869Z,1.60
2023-03-15T02:47:06.623Z,1.42
2023-03-15T02:48:10.104Z,1.23
2023-03-15T02:49:13.548Z,1.42
2023-03-15T02:50:16.465Z,1.52
2023-03-15T02:51:24.049Z,1.42
2023-03-15T02:52:27.108Z,1.48
2023-03-15T02:53:31.111Z,1.38
2023-03-15T02:54:34.348Z,1.50
2023-03-15T02:55:36.829Z,1.40
2023-03-15T02:56:41.118Z,1.30
2023-03-15T02:57:43.621Z,1.00
2023-03-15T02:58:46.533Z,1.23
2023-03-15T02:59:54.987Z,1.00
2023-03-15T03:00:57.617Z,1.45
2023-03-15T03:02:00.766Z,0.88
2023-03-15T03:03:03.408Z,0.85
2023-03-15T03:04:07.488Z,0.85
2023-03-15T03:05:11.614Z,1.08
2023-03-15T03:06:17.965Z,1.17
2023-03-15T03:07:21.209Z,1.33
2023-03-15T03:08:28.483Z,1.17
2023-03-15T03:09:31.059Z,0.98
2023-03-15T03:10:33.546Z,1.20
2023-03-15T03:11:37.474Z,1.73
2023-03-15T03:12:40.041Z,0.90
2023-03-15T03:13:43.263Z,1.40
2023-03-15T03:14:45.727Z,1.17
2023-03-15T03:15:58.770Z,1.02
2023-03-15T03:17:04.619Z,1.17
2023-03-15T03:18:07.093Z,0.80
2023-03-15T03:19:12.667Z,1.15
2023-03-15T03:20:16.713Z,0.85
2023-03-15T03:21:22.209Z,1.35
2023-03-15T03:22:26.082Z,1.30
2023-03-15T03:23:28.906Z,1.05
2023-03-15T03:24:33.803Z,1.50
2023-03-15T03:25:36.788Z,1.20
2023-03-15T03:26:39.498Z,1.17
2023-03-15T03:27:42.078Z,1.67
2023-03-15T03:28:47.413Z,1.20
2023-03-15T03:29:50.688Z,1.30
2023-03-15T03:30:54.325Z,1.52
2023-03-15T03:31:56.938Z,1.70
2023-03-15T03:32:59.619Z,1.20
2023-03-15T03:34:02.410Z,1.88
2023-03-15T03:35:06.190Z,1.00
2023-03-15T03:36:09.761Z,1.42
2023-03-15T03:37:12.751Z,1.65
2023-03-15T03:38:28.063Z,1.55
2023-03-15T03:39:33.379Z,1.17
2023-03-15T03:40:40.625Z,1.50
2023-03-15T03:41:43.648Z,1.42
2023-03-15T03:42:47.859Z,1.30
2023-03-15T03:43:53.742Z,1.60
2023-03-15T03:44:58.077Z,1.60
2023-03-15T03:46:06.877Z,1.38
2023-03-15T03:47:12.763Z,1.40
2023-03-15T03:48:15.749Z,1.88
2023-03-15T03:49:18.248Z,1.67
2023-03-15T03:50:22.211Z,1.30
2023-03-15T03:51:24.814Z,1.38
2023-03-15T03:52:27.275Z,1.95
2023-03-15T03:53:36.664Z,1.55
2023-03-15T03:54:40.035Z,1.77
2023-03-15T03:55:42.900Z,1.60
2023-03-15T03:56:45.902Z,1.77
2023-03-15T03:57:48.393Z,1.98
2023-03-15T03:58:59.840Z,1.92
2023-03-15T04:00:15.172Z,2.03
2023-03-15T04:01:17.921Z,2.00
2023-03-15T04:02:24.887Z,2.30
2023-03-15T04:03:39.857Z,2.58
2023-03-15T04:04:50.356Z,1.73
2023-03-15T04:05:56.792Z,1.95
2023-03-15T04:07:00.549Z,2.70
2023-03-15T04:08:10.846Z,2.10
2023-03-15T04:09:16.534Z,1.85
2023-03-15T04:10:27.056Z,2.13
2023-03-15T04:11:29.793Z,2.03
2023-03-15T04:12:36.281Z,2.40
2023-03-15T04:13:39.333Z,2.92
2023-03-15T04:14:42.064Z,1.83
2023-03-15T04:15:47.513Z,2.05
2023-03-15T04:16:49.963Z,2.65
2023-03-15T04:17:57.328Z,2.13
2023-03-15T04:19:04.724Z,1.90
2023-03-15T04:20:11.950Z,1.92
2023-03-15T04:21:23.122Z,2.15
2023-03-15T04:22:29.422Z,1.95
2023-03-15T04:24:10.164Z,1.95
2023-03-15T04:25:32.868Z,1.85
2023-03-15T04:27:02.059Z,2.03
2023-03-15T04:28:16.297Z,1.75
2023-03-15T04:29:21.839Z,2.13
2023-03-15T04:30:33.257Z,1.48
2023-03-15T04:31:48.344Z,1.88
2023-03-15T04:33:11.401Z,1.85
2023-03-15T04:34:33.585Z,1.52
2023-03-15T04:35:57.423Z,1.77
2023-03-15T04:37:36.323Z,2.08
2023-03-15T04:39:06.090Z,1.85
2023-03-15T04:40:35.319Z,1.50
2023-03-15T04:41:55.988Z,2.13
2023-03-15T04:43:18.663Z,2.67
2023-03-15T04:44:55.746Z,1.90
2023-03-15T04:46:13.756Z,2.40
2023-03-15T04:47:34.928Z,1.95
2023-03-15T04:48:59.355Z,2.00
2023-03-15T04:50:31.486Z,1.80
2023-03-15T04:52:06.405Z,1.70
2023-03-15T04:53:27.208Z,1.63
2023-03-15T04:55:02.218Z,2.00
2023-03-15T04:56:23.274Z,2.10
2023-03-15T04:57:44.105Z,1.63
2023-03-15T04:59:10.826Z,2.10
2023-03-15T05:00:33.660Z,1.75
2023-03-15T05:01:59.081Z,2.08
2023-03-15T05:03:24.898Z,1.90
2023-03-15T05:04:42.628Z,1.60
2023-03-15T05:06:14.479Z,1.80
2023-03-15T05:07:38.174Z,2.08
2023-03-15T05:08:59.033Z,2.10
2023-03-15T05:10:19.478Z,1.88
2023-03-15T05:11:42.174Z,2.08
2023-03-15T05:13:14.107Z,2.60
2023-03-15T05:14:26.421Z,2.03
2023-03-15T05:15:49.354Z,2.08
2023-03-15T05:17:12.213Z,1.85
2023-03-15T05:18:17.549Z,2.60
2023-03-15T05:19:39.516Z,2.30
2023-03-15T05:21:17.655Z,2.08
2023-03-15T05:22:43.223Z,2.10
2023-03-15T05:24:01.128Z,2.70
2023-03-15T05:25:22.061Z,2.38
2023-03-15T05:26:47.915Z,2.88
2023-03-15T05:28:22.458Z,2.05
2023-03-15T05:29:54.267Z,2.22
2023-03-15T05:31:00.772Z,2.00
2023-03-15T05:32:35.379Z,2.45
2023-03-15T05:33:58.114Z,2.03
2023-03-15T05:35:04.863Z,2.10
2023-03-15T05:36:18.659Z,2.63
2023-03-15T05:37:42.393Z,2.30
2023-03-15T05:39:11.826Z,2.58
2023-03-15T05:40:30.241Z,2.30
2023-03-15T05:41:58.527Z,2.67
2023-03-15T05:43:27.221Z,2.97
2023-03-15T05:44:44.879Z,2.72
2023-03-15T05:46:07.582Z,3.00
2023-03-15T05:47:39.207Z,2.95
2023-03-15T05:49:01.987Z,2.85
2023-03-15T05:50:10.803Z,3.25
2023-03-15T05:51:36.269Z,2.95
2023-03-15T05:52:44.478Z,3.35
2023-03-15T05:54:04.636Z,2.67
2023-03-15T05:55:42.517Z,2.05
2023-03-15T05:57:04.837Z,1.95
2023-03-15T05:58:25.917Z,2.22
2023-03-15T05:59:56.426Z,2.53
2023-03-15T06:01:16.734Z,2.45
2023-03-15T06:02:39.037Z,2.30
2023-03-15T06:03:55.102Z,2.28
2023-03-15T06:05:02.448Z,2.10
2023-03-15T06:06:06.432Z,2.03
2023-03-15T06:07:15.136Z,2.25
2023-03-15T06:08:17.574Z,3.05
2023-03-15T06:09:22.936Z,1.90
2023-03-15T06:10:26.494Z,2.60
2023-03-15T06:11:30.905Z,2.47
2023-03-15T06:12:34.554Z,2.17
2023-03-15T06:13:37.249Z,3.10
2023-03-15T06:14:45.830Z,2.75
2023-03-15T06:15:48.811Z,2.55
2023-03-15T06:16:53.075Z,2.15
2023-03-15T06:17:55.720Z,3.33
2023-03-15T06:18:58.329Z,2.28
2023-03-15T06:20:01.189Z,2.65
2023-03-15T06:21:03.816Z,2.60
2023-03-15T06:22:06.365Z,2.47
2023-03-15T06:23:19.321Z,2.33
2023-03-15T06:24:23.007Z,2.83
2023-03-15T06:25:25.744Z,3.20
2023-03-15T06:26:28.259Z,2.85
2023-03-15T06:27:36.013Z,2.80
2023-03-15T06:28:38.909Z,2.67
2023-03-15T06:29:41.451Z,2.90
2023-03-15T06:30:44.329Z,2.55
2023-03-15T06:31:49.812Z,2.92
2023-03-15T06:32:53.871Z,2.95
2023-03-15T06:33:56.454Z,2.70
2023-03-15T06:34:59.169Z,2.30
2023-03-15T06:36:02.195Z,2.72
2023-03-15T06:37:05.165Z,2.38
2023-03-15T06:38:11.010Z,3.03
2023-03-15T06:39:14.753Z,3.45
2023-03-15T06:40:17.446Z,2.15
2023-03-15T06:41:21.789Z,2.53
2023-03-15T06:42:28.627Z,2.10
2023-03-15T06:43:31.929Z,2.50
2023-03-15T06:44:35.406Z,2.28
2023-03-15T06:45:41.252Z,2.63
2023-03-15T06:46:44.703Z,2.55
2023-03-15T06:47:47.252Z,2.17
2023-03-15T06:48:51.335Z,2.30
2023-03-15T06:49:56.961Z,2.65
2023-03-15T06:51:01.161Z,2.28
2023-03-15T06:52:05.228Z,2.70
2023-03-15T06:53:09.037Z,2.80
2023-03-15T06:54:11.714Z,2.58
2023-03-15T06:55:18.411Z,2.15
2023-03-15T06:56:21.777Z,2.65
2023-03-15T06:57:24.248Z,4.05
2023-03-15T06:58:26.868Z,2.58
2023-03-15T06:59:29.377Z,3.30
2023-03-15T07:00:32.944Z,3.17
2023-03-15T07:01:35.746Z,3.30
2023-03-15T07:02:38.688Z,3.40
2023-03-15T07:03:41.817Z,3.53
2023-03-15T07:04:44.910Z,3.05
2023-03-15T07:05:49.587Z,3.10
2023-03-15T07:06:52.200Z,3.78
2023-03-15T07:07:54.743Z,3.10
2023-03-15T07:08:57.776Z,3.63
2023-03-15T07:10:00.349Z,3.03
2023-03-15T07:11:03.948Z,3.45
2023-03-15T07:12:07.262Z,2.45
2023-03-15T07:13:10.175Z,3.20
2023-03-15T07:14:12.636Z,3.17
2023-03-15T07:15:17.067Z,3.17
2023-03-15T07:16:20.194Z,2.40
2023-03-15T07:17:22.649Z,3.25
2023-03-15T07:18:25.401Z,3.50
2023-03-15T07:19:27.939Z,2.95
2023-03-15T07:20:31.572Z,3.72
2023-03-15T07:21:34.189Z,3.53
2023-03-15T07:22:36.787Z,3.78
2023-03-15T07:23:39.652Z,4.35
2023-03-15T07:24:42.180Z,3.67
2023-03-15T07:25:54.819Z,2.95
2023-03-15T07:26:57.844Z,3.38
2023-03-15T07:28:00.425Z,3.75
2023-03-15T07:29:03.401Z,2.58
2023-03-15T07:30:08.238Z,3.15
2023-03-15T07:31:11.620Z,3.03
2023-03-15T07:32:14.293Z,3.72
2023-03-15T07:33:16.817Z,3.90
2023-03-15T07:34:19.427Z,4.10
2023-03-15T07:35:21.911Z,5.03
2023-03-15T07:36:24.322Z,4.13
2023-03-15T07:37:29.103Z,3.35
2023-03-15T07:38:32.198Z,3.15
2023-03-15T07:39:35.007Z,4.00
2023-03-15T07:40:37.525Z,2.95
2023-03-15T07:41:40.142Z,3.22
2023-03-15T07:43:53.847Z,3.42
2023-03-15T07:44:56.396Z,3.00
2023-03-15T07:45:58.961Z,3.25
2023-03-15T07:47:01.847Z,2.90
2023-03-15T07:48:04.457Z,2.63
2023-03-15T07:49:07.160Z,3.38
2023-03-15T07:50:10.404Z,2.90
2023-03-15T07:51:13.077Z,3.10
2023-03-15T07:52:15.591Z,2.50
2023-03-15T07:53:18.434Z,2.90
2023-03-15T07:54:20.989Z,3.25
2023-03-15T07:55:23.716Z,3.75
2023-03-15T07:56:26.108Z,3.90
2023-03-15T07:57:29.051Z,3.25
2023-03-15T07:58:31.890Z,3.50
2023-03-15T07:59:34.421Z,2.92
2023-03-15T08:00:37.190Z,2.92
2023-03-15T08:01:39.764Z,2.45
2023-03-15T08:02:42.459Z,3.50
2023-03-15T08:03:44.965Z,2.92
2023-03-15T08:04:48.774Z,2.83
2023-03-15T08:05:51.469Z,2.95
2023-03-15T08:06:53.996Z,4.22
2023-03-15T08:07:56.978Z,3.13
2023-03-15T08:09:01.618Z,3.28
2023-03-15T08:10:06.283Z,2.95
2023-03-15T08:11:08.809Z,3.15
2023-03-15T08:12:11.592Z,2.85
2023-03-15T08:13:14.191Z,2.80
2023-03-15T08:14:16.738Z,2.50
2023-03-15T08:15:20.333Z,3.38
2023-03-15T08:16:22.845Z,2.42
2023-03-15T08:17:25.298Z,2.58
2023-03-15T08:18:29.077Z,3.13
2023-03-15T08:19:31.598Z,3.30
2023-03-15T08:20:34.088Z,3.40
2023-03-15T08:21:36.737Z,3.95
2023-03-15T08:22:39.267Z,3.60
2023-03-15T08:23:41.777Z,3.53
2023-03-15T08:24:45.838Z,2.90
2023-03-15T08:25:48.837Z,3.33
2023-03-15T08:26:51.437Z,3.15
2023-03-15T08:27:54.084Z,3.72
2023-03-15T08:28:56.549Z,3.55
2023-03-15T08:29:59.490Z,3.38
2023-03-15T08:31:06.044Z,3.60
2023-03-15T08:32:08.952Z,3.13
2023-03-15T08:33:12.542Z,3.28
2023-03-15T08:34:16.269Z,3.88
2023-03-15T08:35:21.465Z,3.10
2023-03-15T08:36:24.057Z,3.90
2023-03-15T08:37:26.807Z,2.95
2023-03-15T08:38:29.389Z,2.90
2023-03-15T08:39:31.889Z,2.40
2023-03-15T08:40:34.389Z,2.40
2023-03-15T08:41:36.890Z,2.17
2023-03-15T08:42:39.412Z,2.17
2023-03-15T08:43:42.226Z,2.40
2023-03-15T08:44:44.656Z,1.92
2023-03-15T08:46:00.336Z,2.00
2023-03-15T08:47:05.303Z,2.35
2023-03-15T08:48:07.810Z,2.30
2023-03-15T08:49:10.578Z,2.17
2023-03-15T08:50:14.538Z,1.83
2023-03-15T08:51:17.104Z,2.03
2023-03-15T08:52:21.380Z,2.42
2023-03-15T08:53:23.913Z,2.55
2023-03-15T08:54:27.503Z,1.90
2023-03-15T08:55:30.068Z,2.38
2023-03-15T08:56:32.648Z,2.17
2023-03-15T08:57:35.177Z,1.52
2023-03-15T08:58:37.952Z,2.03
2023-03-15T08:59:40.784Z,1.95
2023-03-15T09:00:43.339Z,2.13
2023-03-15T09:01:45.906Z,2.35
2023-03-15T09:02:52.292Z,2.10
2023-03-15T09:03:54.971Z,2.40
2023-03-15T09:04:57.486Z,1.80
2023-03-15T09:06:00.660Z,1.58
2023-03-15T09:07:03.272Z,2.00
2023-03-15T09:08:05.828Z,2.10
2023-03-15T09:09:08.509Z,2.25
2023-03-15T09:10:15.011Z,2.25
2023-03-15T09:11:17.727Z,2.15
2023-03-15T09:12:21.213Z,2.58
2023-03-15T09:13:24.511Z,2.20
2023-03-15T09:14:27.068Z,2.17
2023-03-15T09:15:29.731Z,1.80
2023-03-15T09:16:32.256Z,1.83
2023-03-15T09:17:34.782Z,2.10
2023-03-15T09:18:37.327Z,2.63
2023-03-15T09:19:40.035Z,2.60
2023-03-15T09:20:42.961Z,2.58
2023-03-15T09:21:47.169Z,2.65
2023-03-15T09:22:54.642Z,2.00
2023-03-15T09:23:57.298Z,2.72
2023-03-15T09:25:00.037Z,2.58
2023-03-15T09:26:03.358Z,2.60
2023-03-15T09:27:06.125Z,2.85
2023-03-15T09:28:11.460Z,3.70
2023-03-15T09:29:15.179Z,5.75
2023-03-15T09:30:18.098Z,6.53
2023-03-15T09:31:20.602Z,6.22
2023-03-15T09:32:23.236Z,6.07
2023-03-15T09:33:25.744Z,5.93
2023-03-15T09:34:33.301Z,2.80
2023-03-15T09:35:42.605Z,3.78
2023-03-15T09:36:45.766Z,5.47
2023-03-15T09:37:50.063Z,6.10
2023-03-15T09:38:52.514Z,5.07
2023-03-15T09:39:55.067Z,3.60
2023-03-15T09:41:01.317Z,2.72
2023-03-15T09:42:07.568Z,2.63
2023-03-15T09:43:43.030Z,2.60
2023-03-15T09:44:50.849Z,2.42
2023-03-15T09:46:12.104Z,5.70
2023-03-15T09:47:27.430Z,4.10
2023-03-15T09:48:52.591Z,3.35
2023-03-15T09:50:05.428Z,4.00
2023-03-15T09:51:32.684Z,3.75
2023-03-15T09:52:39.908Z,3.50
2023-03-15T09:53:56.956Z,3.40
2023-03-15T09:55:34.943Z,3.28
2023-03-15T09:57:02.345Z,3.00
2023-03-15T09:58:14.581Z,3.17
2023-03-15T09:59:22.716Z,3.45
2023-03-15T10:00:39.104Z,3.28
2023-03-15T10:01:42.832Z,3.38
2023-03-15T10:03:21.825Z,3.72
2023-03-15T10:04:34.682Z,3.17
2023-03-15T10:05:44.169Z,3.38
2023-03-15T10:06:54.674Z,3.90
2023-03-15T10:07:57.318Z,3.00
2023-03-15T10:09:01.627Z,3.10
2023-03-15T10:10:07.634Z,3.30
2023-03-15T10:11:15.954Z,2.70
2023-03-15T10:12:31.604Z,4.00
2023-03-15T10:13:54.510Z,4.07
2023-03-15T10:15:00.377Z,5.72
2023-03-15T10:16:06.436Z,5.13
2023-03-15T10:17:22.117Z,4.30
2023-03-15T10:18:32.924Z,3.60
2023-03-15T10:19:51.980Z,4.00
2023-03-15T10:21:39.883Z,3.92
2023-03-15T10:22:54.393Z,4.65
2023-03-15T10:23:57.264Z,4.97
2023-03-15T10:25:14.660Z,3.13
2023-03-15T10:26:21.170Z,3.13
2023-03-15T10:27:29.740Z,3.15
2023-03-15T10:28:34.826Z,2.83
2023-03-15T10:29:39.697Z,2.70
2023-03-15T10:30:48.094Z,3.05
2023-03-15T10:31:52.763Z,3.35
2023-03-15T10:32:59.479Z,3.25
2023-03-15T10:34:02.229Z,3.33
2023-03-15T10:35:15.316Z,3.60
2023-03-15T10:36:23.534Z,3.70
2023-03-15T10:37:26.771Z,3.80
2023-03-15T10:38:29.368Z,3.45
2023-03-15T10:39:31.864Z,3.33
2023-03-15T10:40:50.547Z,3.22
2023-03-15T10:41:53.218Z,2.95
2023-03-15T10:42:58.340Z,3.58
2023-03-15T10:44:04.182Z,4.32
2023-03-15T10:45:33.967Z,3.80
2023-03-15T10:46:36.542Z,3.03
2023-03-15T10:47:50.508Z,3.60
2023-03-15T10:48:59.207Z,3.53
2023-03-15T10:50:01.714Z,3.25
2023-03-15T10:51:19.745Z,3.88
2023-03-15T10:52:39.100Z,2.92
2023-03-15T10:53:54.030Z,3.80
2023-03-15T10:55:03.939Z,3.15
2023-03-15T10:56:08.035Z,2.92
2023-03-15T10:57:15.492Z,2.45
2023-03-15T10:58:33.281Z,3.00
2023-03-15T10:59:36.353Z,2.72
2023-03-15T11:00:38.828Z,2.20
2023-03-15T11:01:41.643Z,2.35
2023-03-15T11:02:52.607Z,2.00
2023-03-15T11:04:26.864Z,2.33
2023-03-15T11:05:43.117Z,1.70
2023-03-15T11:07:03.651Z,2.35
2023-03-15T11:08:12.145Z,2.15
2023-03-15T11:09:22.844Z,2.47
2023-03-15T11:11:28.858Z,3.13
2023-03-15T11:12:33.528Z,4.25
2023-03-15T11:13:38.123Z,4.38
2023-03-15T11:14:44.126Z,3.83
2023-03-15T11:16:12.774Z,3.10
2023-03-15T11:17:22.053Z,3.40
2023-03-15T11:19:03.673Z,3.08
2023-03-15T11:20:31.936Z,3.17
2023-03-15T11:21:37.024Z,2.45
2023-03-15T11:22:43.044Z,2.40
2023-03-15T11:23:50.228Z,2.40
2023-03-15T11:24:56.437Z,2.63
2023-03-15T11:25:59.096Z,3.10
2023-03-15T11:27:04.315Z,3.22
2023-03-15T11:28:09.164Z,2.88
2023-03-15T11:29:26.432Z,3.03
2023-03-15T11:30:32.072Z,4.05
2023-03-15T11:31:35.997Z,3.25
2023-03-15T11:32:38.646Z,2.67
2023-03-15T11:33:46.170Z,3.15
2023-03-15T11:35:02.907Z,3.33
2023-03-15T11:36:09.629Z,2.83
2023-03-15T11:37:18.012Z,2.28
2023-03-15T11:38:33.569Z,2.40
2023-03-15T11:39:50.222Z,2.42
2023-03-15T11:40:56.813Z,2.80
2023-03-15T11:42:03.327Z,2.78
2023-03-15T11:43:23.574Z,2.70
2023-03-15T11:44:41.550Z,3.22
2023-03-15T11:46:02.403Z,2.75
2023-03-15T11:47:47.958Z,2.40
2023-03-15T11:49:00.420Z,3.50
2023-03-15T11:50:03.044Z,2.17
2023-03-15T11:51:07.042Z,3.22
2023-03-15T11:52:10.060Z,2.83
2023-03-15T11:53:15.528Z,2.78
2023-03-15T11:54:19.296Z,3.22
2023-03-15T11:55:27.124Z,2.63
2023-03-15T11:56:46.952Z,2.17
2023-03-15T11:57:51.056Z,3.05
2023-03-15T11:59:11.276Z,2.90
2023-03-15T12:00:27.054Z,2.50
2023-03-15T12:01:29.602Z,2.55
2023-03-15T12:02:37.293Z,2.35
2023-03-15T12:03:40.998Z,2.38
2023-03-15T12:04:44.380Z,2.35
2023-03-15T12:06:04.757Z,2.58
2023-03-15T12:07:28.439Z,2.47
2023-03-15T12:08:35.576Z,2.15
2023-03-15T12:09:49.317Z,2.25
2023-03-15T12:10:52.135Z,3.60
2023-03-15T12:11:58.877Z,3.03
2023-03-15T12:13:08.092Z,2.90
2023-03-15T12:14:28.940Z,2.85
2023-03-15T12:15:31.538Z,2.72
2023-03-15T12:16:43.274Z,2.55
2023-03-15T12:17:56.002Z,2.92
2023-03-15T12:19:00.430Z,2.42
2023-03-15T12:20:12.119Z,3.13
2023-03-15T12:21:20.728Z,2.60
2023-03-15T12:22:23.526Z,2.40
2023-03-15T12:23:36.832Z,2.60
2023-03-15T12:24:39.982Z,2.33
2023-03-15T12:26:17.242Z,2.45
2023-03-15T12:27:20.903Z,2.55
2023-03-15T12:28:51.121Z,2.67
2023-03-15T12:30:00.060Z,3.38
2023-03-15T12:31:05.873Z,3.30
2023-03-15T12:32:13.687Z,3.20
2023-03-15T12:33:18.375Z,3.15
2023-03-15T12:34:30.142Z,3.20
2023-03-15T12:35:40.580Z,3.03
2023-03-15T12:36:47.611Z,3.10
2023-03-15T12:37:53.079Z,3.00
2023-03-15T12:39:01.654Z,3.45
2023-03-15T12:40:27.660Z,3.25
2023-03-15T12:41:39.088Z,2.33
2023-03-15T12:42:41.582Z,3.25
2023-03-15T12:43:45.680Z,2.42
2023-03-15T12:44:48.438Z,3.03
2023-03-15T12:45:50.968Z,3.33
2023-03-15T12:46:55.185Z,3.65
2023-03-15T12:47:57.790Z,3.47
2023-03-15T12:49:23.791Z,3.60
2023-03-15T12:50:44.433Z,4.22
2023-03-15T12:52:05.881Z,3.65
2023-03-15T12:53:40.038Z,2.80
2023-03-15T12:54:57.767Z,2.58
2023-03-15T12:56:36.945Z,2.47
2023-03-15T12:57:48.677Z,2.85
2023-03-15T12:58:54.624Z,2.67
2023-03-15T12:59:59.693Z,2.80
2023-03-15T13:01:05.593Z,2.42
2023-03-15T13:02:43.448Z,2.70
2023-03-15T13:03:46.914Z,2.42
2023-03-15T13:04:49.950Z,2.38
2023-03-15T13:06:22.391Z,2.60
2023-03-15T13:07:36.840Z,2.70
2023-03-15T13:09:04.725Z,2.60
2023-03-15T13:10:31.139Z,2.47
2023-03-15T13:11:45.985Z,2.22
2023-03-15T13:12:59.670Z,2.05
2023-03-15T13:14:08.124Z,2.70
2023-03-15T13:15:23.749Z,2.53
2023-03-15T13:16:31.128Z,2.38
2023-03-15T13:17:36.464Z,2.33
2023-03-15T13:18:47.965Z,2.72
2023-03-15T13:20:11.206Z,2.10
2023-03-15T13:21:32.147Z,2.63
2023-03-15T13:22:56.058Z,2.03
2023-03-15T13:24:00.127Z,2.20
2023-03-15T13:25:09.982Z,2.53
2023-03-15T13:26:33.286Z,2.85
2023-03-15T13:27:56.724Z,2.47
2023-03-15T13:29:02.335Z,2.75
2023-03-15T13:30:28.195Z,2.65
2023-03-15T13:31:31.610Z,3.00
2023-03-15T13:32:34.635Z,3.28
2023-03-15T13:33:37.503Z,3.20
2023-03-15T13:34:40.856Z,3.35
2023-03-15T13:36:08.298Z,3.88
2023-03-15T13:37:22.207Z,3.40
2023-03-15T13:38:31.809Z,2.88
2023-03-15T13:39:35.261Z,3.20
2023-03-15T13:40:46.826Z,3.83
2023-03-15T13:41:49.760Z,3.45
2023-03-15T13:42:52.400Z,4.38
2023-03-15T13:43:57.247Z,4.03
2023-03-15T13:45:13.257Z,3.70
2023-03-15T13:46:18.603Z,3.90
2023-03-15T13:47:24.430Z,3.15
2023-03-15T13:48:31.765Z,3.13
2023-03-15T13:49:35.025Z,3.20
2023-03-15T13:50:38.173Z,2.70
2023-03-15T13:51:41.388Z,3.03
2023-03-15T13:52:44.155Z,2.95
2023-03-15T13:53:50.265Z,2.45
2023-03-15T13:54:53.930Z,2.28
2023-03-15T13:55:57.300Z,2.97
2023-03-15T13:57:34.973Z,2.72
2023-03-15T13:58:38.949Z,2.58
2023-03-15T13:59:49.733Z,2.15
2023-03-15T14:01:05.795Z,2.95
2023-03-15T14:02:12.259Z,3.42
2023-03-15T14:03:21.709Z,3.53
2023-03-15T14:04:25.507Z,4.18
2023-03-15T14:05:31.092Z,3.60
2023-03-15T14:06:33.982Z,3.20
2023-03-15T14:07:45.429Z,4.15
2023-03-15T14:08:49.712Z,4.03
2023-03-15T14:10:16.937Z,2.75
2023-03-15T14:11:37.223Z,2.80
2023-03-15T14:12:39.890Z,2.45
2023-03-15T14:13:57.617Z,2.25
2023-03-15T14:15:00.150Z,2.83
2023-03-15T14:16:07.979Z,2.40
2023-03-15T14:17:31.913Z,2.25
2023-03-15T14:18:39.599Z,2.33
2023-03-15T14:19:53.446Z,2.83
2023-03-15T14:21:01.746Z,3.05
2023-03-15T14:22:15.695Z,3.50
2023-03-15T14:23:19.428Z,3.08
2023-03-15T14:24:24.893Z,2.42
2023-03-15T14:25:27.611Z,3.88
2023-03-15T14:26:31.336Z,2.88
2023-03-15T14:27:34.533Z,2.00
2023-03-15T14:28:37.350Z,3.28
2023-03-15T14:29:54.630Z,3.38
2023-03-15T14:30:59.029Z,3.25
2023-03-15T14:32:05.893Z,4.32
2023-03-15T14:33:24.234Z,4.15
2023-03-15T14:34:37.163Z,3.25
2023-03-15T14:35:44.285Z,3.05
2023-03-15T14:36:47.808Z,3.20
2023-03-15T14:38:15.861Z,3.30
2023-03-15T14:39:35.858Z,4.05
2023-03-15T14:40:39.279Z,4.82
2023-03-15T14:41:41.698Z,3.90
2023-03-15T14:42:45.205Z,3.53
2023-03-15T14:43:47.836Z,2.85
2023-03-15T14:44:52.682Z,3.95
2023-03-15T14:45:55.291Z,4.20
2023-03-15T14:46:58.315Z,3.60
2023-03-15T14:48:08.539Z,4.35
2023-03-15T14:49:14.001Z,4.80
2023-03-15T14:50:22.195Z,4.38
2023-03-15T14:51:25.804Z,4.60
2023-03-15T14:52:28.405Z,3.72
2023-03-15T14:53:36.056Z,4.60
2023-03-15T14:54:38.933Z,4.68
2023-03-15T14:55:41.405Z,4.70
2023-03-15T14:56:44.524Z,4.50
2023-03-15T14:57:47.347Z,4.90
2023-03-15T14:58:49.868Z,4.57
2023-03-15T14:59:52.812Z,4.28
2023-03-15T15:00:58.120Z,5.43
2023-03-15T15:02:02.930Z,4.50
2023-03-15T15:03:14.038Z,3.88
2023-03-15T15:04:17.298Z,3.78
2023-03-15T15:05:31.448Z,3.47
2023-03-15T15:06:36.762Z,3.95
2023-03-15T15:07:39.269Z,3.65
2023-03-15T15:08:45.822Z,3.03
2023-03-15T15:09:50.743Z,3.75
2023-03-15T15:10:56.235Z,2.50
2023-03-15T15:11:58.726Z,3.00
2023-03-15T15:13:06.452Z,3.47
2023-03-15T15:14:16.408Z,4.18
2023-03-15T15:15:21.651Z,3.75